Time;durP1;ratioP1;P1;durP2;ratioP2;P2;SDS_P1;SDS_P2;PMS_P1;PMS_P2;Temp;Humidity;BMP_temperature;BMP_pressure;BME280_temperature;BME280_humidity;BME280_pressure;Samples;Min_cycle;Max_cycle;Signal;HPM_P1;HPM_P2
2023/08/23 00:00:55;;;;;;;7.55;4.10;;;19.60;83.10;;;;;;5117668;28;20035;-83
2023/08/23 00:03:21;;;;;;;7.80;4.13;;;19.60;83.20;;;;;;5117479;28;20026;-83
2023/08/23 00:05:47;;;;;;;7.65;4.03;;;19.60;83.20;;;;;;5100263;28;20047;-82
2023/08/23 00:08:12;;;;;;;7.03;4.15;;;19.60;83.10;;;;;;5117251;28;20051;-82
2023/08/23 00:10:38;;;;;;;7.57;4.68;;;19.60;83.20;;;;;;5117401;28;20027;-83
2023/08/23 00:13:03;;;;;;;7.30;4.50;;;19.50;83.20;;;;;;5117209;28;20043;-83
2023/08/23 00:15:29;;;;;;;6.05;3.97;;;19.60;83.20;;;;;;5083323;28;20028;-83
2023/08/23 00:17:55;;;;;;;6.43;3.85;;;19.60;83.10;;;;;;5117069;28;20012;-82
2023/08/23 00:20:20;;;;;;;10.27;5.00;;;19.50;83.00;;;;;;5083350;28;20082;-83
2023/08/23 00:22:46;;;;;;;6.82;4.47;;;19.50;83.10;;;;;;5100004;28;20023;-83
2023/08/23 00:25:11;;;;;;;7.15;3.83;;;19.50;83.20;;;;;;5099820;28;20521;-82
2023/08/23 00:27:37;;;;;;;5.82;4.05;;;19.40;83.30;;;;;;5083220;28;20043;-82
2023/08/23 00:30:03;;;;;;;6.20;3.90;;;19.40;83.20;;;;;;5083280;28;20024;-82
2023/08/23 00:32:29;;;;;;;7.38;4.07;;;19.40;83.20;;;;;;5099830;28;20091;-83
2023/08/23 00:34:54;;;;;;;6.57;4.07;;;19.40;83.40;;;;;;5099352;28;20390;-82
2023/08/23 00:37:20;;;;;;;8.10;4.45;;;19.30;83.50;;;;;;5099659;28;20027;-82
2023/08/23 00:39:45;;;;;;;6.53;4.70;;;19.30;83.80;;;;;;5099711;28;20026;-82
2023/08/23 00:42:11;;;;;;;10.98;4.95;;;19.20;84.00;;;;;;5099552;28;20027;-83
2023/08/23 00:44:37;;;;;;;8.38;5.07;;;19.20;84.30;;;;;;5099624;28;20034;-82
2023/08/23 00:47:03;;;;;;;7.75;5.05;;;19.20;84.40;;;;;;5082892;28;20081;-82
2023/08/23 00:49:33;;;;;;;7.18;4.82;;;19.20;84.50;;;;;;5116744;28;20019;-81
2023/08/23 00:52:04;;;;;;;8.55;4.40;;;19.20;84.50;;;;;;5116443;28;20095;-83
2023/08/23 00:54:29;;;;;;;8.10;4.28;;;19.10;84.30;;;;;;5117094;28;20023;-83
2023/08/23 00:56:58;;;;;;;7.40;4.38;;;19.20;84.00;;;;;;5099451;28;20028;-83
2023/08/23 00:59:24;;;;;;;7.97;4.65;;;19.20;83.90;;;;;;5134283;28;20075;-82
2023/08/23 01:01:50;;;;;;;8.80;4.35;;;19.10;83.90;;;;;;5116271;28;20024;-82
2023/08/23 01:04:16;;;;;;;8.45;4.28;;;19.10;83.90;;;;;;5099451;28;20020;-83
2023/08/23 01:07:09;;;;;;;7.90;4.70;;;19.10;83.70;;;;;;5099314;28;20027;-82
2023/08/23 01:09:40;;;;;;;9.80;4.82;;;19.00;83.80;;;;;;5116194;28;20083;-83
2023/08/23 01:12:14;;;;;;;8.60;4.07;;;18.90;84.70;;;;;;5134148;28;20028;-82
2023/08/23 01:14:49;;;;;;;6.68;4.65;;;18.80;84.80;;;;;;5134043;28;20023;-82
2023/08/23 01:17:18;;;;;;;6.57;4.35;;;18.70;85.30;;;;;;5134095;28;20026;-83
2023/08/23 01:19:46;;;;;;;9.38;4.78;;;18.70;85.60;;;;;;5116003;28;20030;-82
2023/08/23 01:22:22;;;;;;;7.00;4.45;;;18.60;85.50;;;;;;5115970;28;20020;-83
2023/08/23 01:24:49;;;;;;;7.63;4.00;;;18.60;85.80;;;;;;5115960;28;20051;-82
2023/08/23 01:27:19;;;;;;;6.03;4.20;;;18.50;86.20;;;;;;5116011;28;20027;-83
2023/08/23 01:29:45;;;;;;;8.82;4.38;;;18.40;86.00;;;;;;5115896;28;20031;-82
2023/08/23 01:32:19;;;;;;;6.38;4.03;;;18.50;85.70;;;;;;5115911;28;20395;-82
2023/08/23 01:34:50;;;;;;;10.23;4.65;;;18.60;85.50;;;;;;5115748;28;20028;-82
2023/08/23 01:37:16;;;;;;;10.20;4.43;;;18.60;85.30;;;;;;5115963;28;20035;-83
2023/08/23 01:39:43;;;;;;;8.20;4.13;;;18.60;84.90;;;;;;5116038;28;20047;-83
2023/08/23 01:42:09;;;;;;;6.13;4.40;;;18.60;84.50;;;;;;5133811;28;20024;-82
2023/08/23 01:44:35;;;;;;;7.22;4.53;;;18.60;84.40;;;;;;5082301;28;20360;-83
2023/08/23 01:47:00;;;;;;;6.38;4.00;;;18.60;84.60;;;;;;5100281;28;20039;-82
2023/08/23 01:49:26;;;;;;;7.07;4.13;;;18.50;84.70;;;;;;5103309;28;20028;-81
2023/08/23 01:51:52;;;;;;;6.57;4.05;;;18.50;84.70;;;;;;5102891;28;20053;-82
2023/08/23 01:54:17;;;;;;;8.50;4.10;;;18.50;84.90;;;;;;5119813;28;20032;-83
2023/08/23 01:56:43;;;;;;;7.93;4.63;;;18.50;85.20;;;;;;5086057;28;20036;-82
2023/08/23 01:59:08;;;;;;;6.20;4.15;;;18.50;85.00;;;;;;5102796;28;20023;-81
2023/08/23 02:01:35;;;;;;;7.72;4.13;;;18.40;84.70;;;;;;5102857;28;20034;-83
2023/08/23 02:04:01;;;;;;;6.97;4.35;;;18.40;85.10;;;;;;5102523;28;20055;-82
2023/08/23 02:06:26;;;;;;;6.47;3.97;;;18.40;85.20;;;;;;5102647;28;20035;-82
2023/08/23 02:08:52;;;;;;;8.50;4.57;;;18.50;85.10;;;;;;5102622;28;20028;-82
2023/08/23 02:11:17;;;;;;;6.60;3.95;;;18.40;85.20;;;;;;5085892;28;20103;-82
2023/08/23 02:13:43;;;;;;;8.88;4.20;;;18.40;85.30;;;;;;5102582;28;20031;-82
2023/08/23 02:16:09;;;;;;;6.82;4.60;;;18.40;85.60;;;;;;5085645;28;20030;-82
2023/08/23 02:18:34;;;;;;;9.20;4.63;;;18.40;85.70;;;;;;5085677;28;20378;-82
2023/08/23 02:21:00;;;;;;;5.63;4.25;;;18.40;85.60;;;;;;5119331;28;20024;-82
2023/08/23 02:23:26;;;;;;;6.63;4.05;;;18.40;85.70;;;;;;5137324;28;20049;-82
2023/08/23 02:25:51;;;;;;;8.52;4.25;;;18.40;85.60;;;;;;5085388;28;20051;-82
2023/08/23 02:28:17;;;;;;;7.63;4.28;;;18.40;85.50;;;;;;5102210;28;20035;-82
2023/08/23 02:30:43;;;;;;;7.15;4.28;;;18.40;85.50;;;;;;5119217;28;20032;-82
2023/08/23 02:33:08;;;;;;;6.85;4.45;;;18.30;86.40;;;;;;5119052;28;20032;-82
2023/08/23 02:35:34;;;;;;;4.60;3.10;;;18.30;85.80;;;;;;5118985;28;20031;-82
2023/08/23 02:38:01;;;;;;;6.40;3.65;;;18.30;85.90;;;;;;5085321;28;20038;-82
2023/08/23 02:40:27;;;;;;;6.72;4.00;;;18.20;85.70;;;;;;5102209;28;20023;-81
2023/08/23 02:42:55;;;;;;;5.88;3.92;;;18.20;85.60;;;;;;5102086;28;20030;-82
2023/08/23 02:45:21;;;;;;;7.65;3.85;;;18.20;85.50;;;;;;5118899;28;20065;-82
2023/08/23 02:47:47;;;;;;;4.13;3.03;;;18.10;85.50;;;;;;5102140;28;20032;-82
2023/08/23 02:50:12;;;;;;;8.60;3.58;;;18.00;85.70;;;;;;5085117;28;20035;-83
2023/08/23 02:52:38;;;;;;;5.05;3.60;;;18.00;85.60;;;;;;5101792;28;20031;-82
2023/08/23 02:55:04;;;;;;;7.03;3.72;;;18.00;85.40;;;;;;5084930;28;20042;-83
2023/08/23 02:57:30;;;;;;;5.57;3.88;;;18.10;85.40;;;;;;5084783;28;20027;-83
2023/08/23 02:59:55;;;;;;;6.00;3.88;;;18.10;85.20;;;;;;5118645;28;20024;-83
2023/08/23 03:02:21;;;;;;;6.50;3.80;;;18.10;85.30;;;;;;5101669;28;20024;-82
2023/08/23 03:04:46;;;;;;;7.30;3.90;;;18.10;85.10;;;;;;5101767;28;20087;-83
2023/08/23 03:07:12;;;;;;;8.45;4.13;;;18.00;85.00;;;;;;5118571;28;20050;-82
2023/08/23 03:09:38;;;;;;;5.55;3.85;;;18.00;85.80;;;;;;5118539;28;20032;-82
2023/08/23 03:12:04;;;;;;;6.57;4.22;;;18.00;84.80;;;;;;5118370;28;20102;-83
2023/08/23 03:14:30;;;;;;;10.45;4.70;;;18.00;84.90;;;;;;5084664;28;20494;-82
2023/08/23 03:16:56;;;;;;;8.27;4.65;;;18.00;84.80;;;;;;5101187;28;20039;-82
2023/08/23 03:19:21;;;;;;;6.28;4.32;;;18.00;84.80;;;;;;5118453;28;20028;-82
2023/08/23 03:21:47;;;;;;;6.70;4.45;;;18.00;84.80;;;;;;5118282;28;20085;-83
2023/08/23 03:24:12;;;;;;;7.63;4.70;;;17.90;84.90;;;;;;5084527;28;20023;-82
2023/08/23 03:26:38;;;;;;;8.90;4.28;;;17.90;84.90;;;;;;5101027;28;20096;-83
2023/08/23 03:29:04;;;;;;;7.45;4.53;;;17.90;84.80;;;;;;5101115;28;20093;-82
2023/08/23 03:31:29;;;;;;;7.82;3.97;;;17.80;84.70;;;;;;5084347;28;20047;-82
2023/08/23 03:33:55;;;;;;;7.07;4.10;;;17.80;84.80;;;;;;5101155;28;20065;-82
2023/08/23 03:36:21;;;;;;;5.95;4.10;;;17.80;84.90;;;;;;5101135;28;20032;-83
2023/08/23 03:38:47;;;;;;;7.18;3.90;;;17.80;85.70;;;;;;5117825;28;20028;-83
2023/08/23 03:41:13;;;;;;;5.90;4.00;;;17.80;84.80;;;;;;5100897;28;20024;-83
2023/08/23 03:43:39;;;;;;;7.05;4.18;;;17.70;84.90;;;;;;5084197;28;20020;-83
2023/08/23 03:46:05;;;;;;;6.72;4.53;;;17.60;85.10;;;;;;5100780;28;20024;-83
2023/08/23 03:48:30;;;;;;;6.28;4.15;;;17.60;85.10;;;;;;5117615;28;20035;-83
2023/08/23 03:50:59;;;;;;;6.82;4.28;;;17.60;85.30;;;;;;5117738;28;20031;-83
2023/08/23 03:53:26;;;;;;;8.20;4.28;;;17.60;85.30;;;;;;5100618;28;20032;-83
2023/08/23 03:55:55;;;;;;;6.20;4.03;;;17.50;85.40;;;;;;5117358;28;20035;-83
2023/08/23 03:58:21;;;;;;;7.32;4.38;;;17.50;85.30;;;;;;5100509;28;20031;-82
2023/08/23 04:00:52;;;;;;;8.65;4.97;;;17.50;85.00;;;;;;5135423;28;20015;-83
2023/08/23 04:03:17;;;;;;;8.80;4.53;;;17.50;85.30;;;;;;5135383;28;20052;-82
2023/08/23 04:05:43;;;;;;;10.27;4.90;;;17.40;85.30;;;;;;5100332;28;20023;-82
2023/08/23 04:08:09;;;;;;;9.30;4.45;;;17.50;85.30;;;;;;5100324;28;20031;-82
2023/08/23 04:10:34;;;;;;;6.15;4.35;;;17.50;85.30;;;;;;5083091;28;20045;-82
2023/08/23 04:13:00;;;;;;;7.13;4.38;;;17.50;85.20;;;;;;5117299;28;20032;-82
2023/08/23 04:15:26;;;;;;;6.93;4.35;;;17.50;85.20;;;;;;5100203;28;20020;-82
2023/08/23 04:17:52;;;;;;;7.50;4.45;;;17.50;85.20;;;;;;5100330;28;20031;-82
2023/08/23 04:20:17;;;;;;;7.03;4.30;;;17.40;85.20;;;;;;5099992;28;20035;-82
2023/08/23 04:22:43;;;;;;;7.00;4.50;;;17.40;86.20;;;;;;5117081;28;20019;-82
2023/08/23 04:25:10;;;;;;;8.55;4.93;;;17.40;85.40;;;;;;5083129;28;20047;-83
2023/08/23 04:27:36;;;;;;;9.45;5.25;;;17.50;85.40;;;;;;5100101;28;20030;-83
2023/08/23 04:30:02;;;;;;;5.97;4.28;;;17.50;85.40;;;;;;5100056;28;20032;-84
2023/08/23 04:32:28;;;;;;;8.50;5.18;;;17.40;85.80;;;;;;5099765;28;20054;-82
2023/08/23 04:34:53;;;;;;;6.55;5.00;;;17.40;86.30;;;;;;5082881;28;20016;-82
2023/08/23 04:37:19;;;;;;;7.13;5.30;;;17.40;86.30;;;;;;5099947;28;20028;-83
2023/08/23 04:39:46;;;;;;;10.32;5.03;;;17.40;86.30;;;;;;5100075;28;20024;-82
2023/08/23 04:42:12;;;;;;;8.90;5.20;;;17.40;86.30;;;;;;5099898;28;20023;-82
2023/08/23 04:44:37;;;;;;;8.45;4.90;;;17.50;86.30;;;;;;5082930;28;20032;-82
2023/08/23 04:47:03;;;;;;;9.23;5.10;;;17.50;86.30;;;;;;5099681;28;20032;-81
2023/08/23 04:49:29;;;;;;;7.50;4.88;;;17.50;86.30;;;;;;5116464;28;20036;-81
2023/08/23 04:51:54;;;;;;;7.68;5.03;;;17.50;86.30;;;;;;5116454;28;20035;-82
2023/08/23 04:54:20;;;;;;;8.77;4.80;;;17.40;86.30;;;;;;5099639;28;20092;-82
2023/08/23 04:56:46;;;;;;;8.05;5.75;;;17.30;87.30;;;;;;5116228;28;20087;-82
2023/08/23 04:59:11;;;;;;;9.63;5.50;;;17.30;86.80;;;;;;5082742;28;20028;-82
2023/08/23 05:01:37;;;;;;;7.85;4.70;;;17.30;87.10;;;;;;5116353;28;20020;-81
2023/08/23 05:04:03;;;;;;;11.70;5.55;;;17.20;87.20;;;;;;5099477;28;20055;-82
2023/08/23 05:06:28;;;;;;;7.97;5.10;;;17.20;87.30;;;;;;5116338;28;20053;-82
2023/08/23 05:08:54;;;;;;;9.18;5.10;;;17.30;87.40;;;;;;5082734;28;20035;-81
2023/08/23 05:11:20;;;;;;;8.30;5.05;;;17.30;87.30;;;;;;5082482;28;20035;-82
2023/08/23 05:13:46;;;;;;;8.02;4.72;;;17.40;87.30;;;;;;5082752;28;20030;-81
2023/08/23 05:16:12;;;;;;;9.10;5.38;;;17.30;87.10;;;;;;5099308;28;20031;-81
2023/08/23 05:18:38;;;;;;;10.68;5.40;;;17.30;87.10;;;;;;5115982;28;20031;-81
2023/08/23 05:21:04;;;;;;;7.43;5.03;;;17.20;87.70;;;;;;5116169;28;20028;-81
2023/08/23 05:23:29;;;;;;;9.38;5.97;;;17.20;88.10;;;;;;5134036;28;20022;-81
2023/08/23 05:25:56;;;;;;;8.20;5.45;;;17.20;88.40;;;;;;5115790;28;20099;-80
2023/08/23 05:28:22;;;;;;;11.50;5.97;;;17.30;88.50;;;;;;5099007;28;20054;-81
2023/08/23 05:30:49;;;;;;;8.27;5.95;;;17.30;88.50;;;;;;5082274;28;20032;-81
2023/08/23 05:33:15;;;;;;;9.10;5.72;;;17.40;88.60;;;;;;5133736;28;20026;-81
2023/08/23 05:35:42;;;;;;;12.23;5.75;;;17.40;88.60;;;;;;5115696;28;20390;-80
2023/08/23 05:38:09;;;;;;;9.77;5.38;;;17.40;88.60;;;;;;5115774;28;20118;-81
2023/08/23 05:40:36;;;;;;;10.52;5.63;;;17.30;88.90;;;;;;5115835;28;20016;-81
2023/08/23 05:43:01;;;;;;;9.90;5.85;;;17.30;89.30;;;;;;5115805;28;20129;-82
2023/08/23 05:45:27;;;;;;;11.18;5.40;;;17.40;89.60;;;;;;5098970;28;20031;-82
2023/08/23 05:47:56;;;;;;;12.65;6.28;;;17.50;89.90;;;;;;5098936;28;20048;-81
2023/08/23 05:50:22;;;;;;;14.60;6.68;;;17.50;89.90;;;;;;5115778;28;20049;-82
2023/08/23 05:52:48;;;;;;;11.23;6.43;;;17.50;89.90;;;;;;5115727;28;20035;-82
2023/08/23 05:55:14;;;;;;;11.07;6.53;;;17.50;90.10;;;;;;5098843;28;20019;-83
2023/08/23 05:57:39;;;;;;;9.20;6.65;;;17.50;90.20;;;;;;5115896;28;20034;-82
2023/08/23 06:00:06;;;;;;;15.25;7.80;;;17.60;90.40;;;;;;5098880;28;20042;-81
2023/08/23 06:02:32;;;;;;;12.07;7.78;;;17.60;90.80;;;;;;5098866;28;20050;-82
2023/08/23 06:04:58;;;;;;;13.52;7.82;;;17.60;90.60;;;;;;5115721;28;20020;-81
2023/08/23 06:07:25;;;;;;;11.10;7.47;;;17.60;90.60;;;;;;5115832;28;20024;-82
2023/08/23 06:09:50;;;;;;;14.00;9.10;;;17.60;90.70;;;;;;5098697;28;20023;-82
2023/08/23 06:12:16;;;;;;;23.95;16.25;;;17.60;90.80;;;;;;5115487;28;20016;-81
2023/08/23 06:14:42;;;;;;;20.98;15.82;;;17.60;91.20;;;;;;5133475;28;20044;-82
2023/08/23 06:17:08;;;;;;;23.05;17.52;;;17.60;91.40;;;;;;5115410;28;20180;-82
2023/08/23 06:19:33;;;;;;;20.80;17.13;;;17.60;91.60;;;;;;5115547;28;20034;-82
2023/08/23 06:21:59;;;;;;;21.00;15.60;;;17.60;91.80;;;;;;5098554;28;20027;-80
2023/08/23 06:24:25;;;;;;;22.00;16.02;;;17.70;92.00;;;;;;5098370;28;20050;-81
2023/08/23 06:26:50;;;;;;;21.35;15.45;;;17.70;92.20;;;;;;5098225;28;20036;-81
2023/08/23 06:29:17;;;;;;;21.25;15.40;;;17.70;92.30;;;;;;5098408;28;20036;-81
2023/08/23 06:31:43;;;;;;;23.35;15.52;;;17.80;92.40;;;;;;5098634;28;20028;-81
2023/08/23 06:34:09;;;;;;;22.35;16.17;;;17.90;92.50;;;;;;5101495;28;20055;-81
2023/08/23 06:36:34;;;;;;;21.55;15.95;;;18.00;92.60;;;;;;5118926;28;20092;-81
2023/08/23 06:39:00;;;;;;;24.20;15.80;;;18.00;92.80;;;;;;5119138;28;20028;-81
2023/08/23 06:41:26;;;;;;;97.97;56.03;;;18.00;93.20;;;;;;5136986;28;20016;-82
2023/08/23 06:44:01;;;;;;;31.85;21.23;;;18.10;93.40;;;;;;5119106;28;20046;-81
2023/08/23 06:46:39;;;;;;;28.48;17.95;;;18.10;93.60;;;;;;5119035;28;20023;-81
2023/08/23 06:49:11;;;;;;;24.58;16.67;;;18.20;94.10;;;;;;5119093;28;20060;-81
2023/08/23 06:59:36;;;;;;;;;;;;;;;;;;;;;
2023/08/23 07:02:10;;;;;;;25.38;17.40;;;18.50;94.90;;;;;;5048004;28;20137;-81
2023/08/23 07:04:44;;;;;;;25.42;19.27;;;18.50;94.30;;;;;;5053901;28;20021;-82
2023/08/23 07:07:21;;;;;;;28.05;20.48;;;18.60;94.50;;;;;;5037523;28;20101;-82
2023/08/23 07:09:50;;;;;;;27.88;20.08;;;18.70;94.60;;;;;;5053942;28;20072;-82
2023/08/23 07:12:19;;;;;;;24.48;17.88;;;18.80;94.50;;;;;;5080560;28;20039;-82
2023/08/23 07:14:49;;;;;;;26.95;17.67;;;18.80;94.40;;;;;;5118371;28;20047;-83
2023/08/23 07:17:18;;;;;;;22.98;16.75;;;18.90;94.20;;;;;;5136343;28;20020;-82
2023/08/23 07:20:04;;;;;;;20.75;15.57;;;19.00;94.10;;;;;;5118290;28;20027;-81
2023/08/23 07:23:12;;;;;;;23.60;16.48;;;19.10;93.90;;;;;;5104420;28;20032;-82
2023/08/23 07:25:38;;;;;;;24.05;17.35;;;19.20;93.70;;;;;;5116419;28;20101;-82
2023/08/23 07:28:04;;;;;;;22.83;17.67;;;19.20;93.80;;;;;;5100973;28;20079;-82
2023/08/23 07:30:32;;;;;;;24.80;16.65;;;19.30;93.90;;;;;;5101139;28;20028;-82
2023/08/23 07:33:01;;;;;;;20.58;16.65;;;19.40;93.50;;;;;;5118087;28;20088;-83
2023/08/23 07:35:43;;;;;;;18.23;14.88;;;19.50;93.70;;;;;;5134641;28;20046;-83
2023/08/23 07:38:09;;;;;;;18.02;14.50;;;19.50;93.10;;;;;;5102259;28;20028;-82
2023/08/23 07:40:38;;;;;;;19.10;15.07;;;19.60;92.80;;;;;;5117994;28;20024;-82
2023/08/23 07:43:04;;;;;;;16.73;14.38;;;19.70;92.70;;;;;;5117977;28;20020;-82
2023/08/23 07:45:30;;;;;;;18.70;15.00;;;19.80;92.70;;;;;;5116759;28;20088;-81
2023/08/23 07:47:55;;;;;;;33.35;23.65;;;19.90;92.80;;;;;;5100768;28;20095;-79
2023/08/23 07:50:21;;;;;;;55.28;35.17;;;20.00;92.80;;;;;;5117619;28;20038;-81
2023/08/23 07:52:48;;;;;;;19.48;15.85;;;20.10;92.80;;;;;;5100541;28;20032;-80
2023/08/23 07:55:13;;;;;;;18.02;13.60;;;20.30;92.60;;;;;;5117280;28;20028;-80
2023/08/23 07:57:39;;;;;;;11.45;9.85;;;20.30;92.20;;;;;;5117409;28;20031;-80
2023/08/23 08:00:09;;;;;;;14.63;10.57;;;20.40;91.30;;;;;;5083681;28;20091;-80
2023/08/23 08:02:35;;;;;;;15.45;10.82;;;20.40;90.90;;;;;;5117579;28;20076;-80
2023/08/23 08:05:00;;;;;;;13.40;10.98;;;20.50;90.70;;;;;;5100394;28;20024;-81
2023/08/23 08:07:29;;;;;;;13.70;10.88;;;20.50;91.00;;;;;;5135331;28;20030;-80
2023/08/23 08:09:54;;;;;;;14.40;11.25;;;20.60;90.80;;;;;;5135240;28;20028;-80
2023/08/23 08:12:21;;;;;;;14.88;11.25;;;20.70;90.70;;;;;;5100225;28;20095;-80
2023/08/23 08:14:49;;;;;;;12.10;9.57;;;20.70;90.90;;;;;;5100270;28;20023;-83
2023/08/23 08:17:21;;;;;;;15.23;10.18;;;20.80;90.20;;;;;;5100170;28;20031;-80
2023/08/23 08:19:47;;;;;;;15.27;9.68;;;20.90;90.40;;;;;;5100187;28;20020;-79
2023/08/23 08:22:13;;;;;;;12.48;9.85;;;21.00;90.20;;;;;;5116975;28;20023;-79
2023/08/23 08:24:44;;;;;;;14.35;9.35;;;21.10;90.00;;;;;;5116779;28;20112;-79
2023/08/23 08:27:41;;;;;;;12.10;9.05;;;21.10;88.30;;;;;;5112556;28;20134;-79
2023/08/23 08:30:10;;;;;;;11.80;10.20;;;21.20;89.00;;;;;;5098189;28;20051;-79
2023/08/23 08:32:41;;;;;;;12.45;9.60;;;21.20;88.60;;;;;;5097221;28;20089;-79
2023/08/23 08:35:07;;;;;;;11.85;9.02;;;21.20;88.30;;;;;;5114199;28;20042;-79
2023/08/23 08:37:33;;;;;;;13.43;9.30;;;21.20;87.20;;;;;;5130540;28;20027;-79
2023/08/23 08:40:01;;;;;;;12.30;9.18;;;21.30;87.20;;;;;;5113262;28;20020;-79
2023/08/23 08:42:55;;;;;;;11.70;8.68;;;21.40;87.20;;;;;;5113124;28;20051;-79
2023/08/23 08:45:27;;;;;;;10.80;7.85;;;21.50;87.00;;;;;;5092897;28;20042;-79
2023/08/23 08:47:56;;;;;;;9.95;7.95;;;21.50;87.00;;;;;;5113359;28;20035;-81
2023/08/23 08:50:22;;;;;;;13.63;8.32;;;21.60;86.00;;;;;;5110277;28;20044;-79
2023/08/23 08:52:52;;;;;;;12.40;8.27;;;21.70;85.80;;;;;;5113036;28;20035;-77
2023/08/23 08:55:31;;;;;;;11.02;9.23;;;21.80;85.40;;;;;;5113893;28;20038;-77
2023/08/23 08:58:05;;;;;;;13.10;9.52;;;21.80;86.50;;;;;;5112871;28;20020;-78
2023/08/23 09:00:32;;;;;;;10.30;7.50;;;21.80;86.50;;;;;;5114025;28;20054;-77
2023/08/23 09:03:01;;;;;;;11.13;7.13;;;21.90;85.20;;;;;;5112827;28;20016;-77
2023/08/23 09:05:28;;;;;;;11.10;6.38;;;21.90;85.20;;;;;;5112961;28;20054;-77
2023/08/23 09:08:15;;;;;;;9.45;6.15;;;21.90;83.40;;;;;;5112860;28;20019;-76
2023/08/23 09:10:45;;;;;;;8.30;5.82;;;22.00;82.80;;;;;;5113973;28;20082;-76
2023/08/23 09:13:14;;;;;;;8.13;5.97;;;22.10;83.20;;;;;;5113126;28;20087;-76
2023/08/23 09:15:40;;;;;;;9.05;6.22;;;22.30;83.40;;;;;;5112691;28;20036;-77
2023/08/23 09:18:05;;;;;;;11.10;6.35;;;22.40;82.80;;;;;;5079162;28;20024;-77
2023/08/23 09:20:31;;;;;;;8.75;5.55;;;22.40;81.50;;;;;;5095892;28;20042;-76
2023/08/23 09:22:57;;;;;;;27.15;18.85;;;22.40;80.70;;;;;;5079105;28;20048;-76
2023/08/23 09:25:41;;;;;;;24.65;16.33;;;22.40;82.10;;;;;;5112709;28;20028;-77
2023/08/23 09:28:12;;;;;;;9.90;6.90;;;22.50;81.10;;;;;;5111451;28;20048;-77
2023/08/23 09:30:37;;;;;;;9.20;5.57;;;22.60;80.90;;;;;;5112632;28;20024;-77
2023/08/23 09:33:03;;;;;;;7.57;4.93;;;22.70;81.50;;;;;;5113470;28;20085;-77
2023/08/23 09:35:29;;;;;;;6.35;4.72;;;22.80;80.10;;;;;;5112147;28;20099;-77
2023/08/23 09:37:55;;;;;;;8.95;5.15;;;22.80;80.20;;;;;;5112496;28;20024;-77
2023/08/23 09:40:21;;;;;;;8.88;4.60;;;22.90;80.30;;;;;;5113504;28;20012;-77
2023/08/23 09:42:48;;;;;;;7.18;3.80;;;23.00;79.20;;;;;;5113396;28;20024;-74
2023/08/23 09:45:25;;;;;;;7.88;4.53;;;23.00;77.90;;;;;;5113440;28;20062;-74
2023/08/23 09:47:58;;;;;;;9.32;5.13;;;23.10;78.80;;;;;;5113631;28;20032;-74
2023/08/23 09:50:25;;;;;;;7.43;4.50;;;23.20;78.30;;;;;;5113176;28;20020;-74
2023/08/23 09:52:57;;;;;;;7.53;4.32;;;23.30;78.70;;;;;;5112184;28;20060;-77
2023/08/23 09:55:43;;;;;;;11.10;5.32;;;23.30;78.50;;;;;;5112735;28;20054;-77
2023/08/23 09:58:10;;;;;;;9.75;5.38;;;23.50;80.60;;;;;;5113322;28;20028;-79
2023/08/23 10:00:36;;;;;;;11.05;5.78;;;23.60;80.10;;;;;;5112762;28;20047;-77
2023/08/23 10:03:02;;;;;;;8.77;6.10;;;23.70;79.70;;;;;;5112654;28;20024;-77
2023/08/23 10:05:28;;;;;;;9.98;5.68;;;23.70;78.60;;;;;;5129218;28;20050;-77
2023/08/23 10:07:55;;;;;;;8.32;4.50;;;23.90;78.60;;;;;;5113585;28;20092;-77
2023/08/23 10:10:21;;;;;;;9.57;5.10;;;24.00;78.50;;;;;;5082657;28;20032;-77
2023/08/23 10:12:53;;;;;;;7.95;4.68;;;24.10;78.10;;;;;;5115798;28;20189;-77
2023/08/23 10:15:31;;;;;;;9.35;5.95;;;24.10;77.70;;;;;;5116671;28;20032;-77
2023/08/23 10:18:00;;;;;;;9.10;5.57;;;24.20;77.70;;;;;;5115680;28;20046;-77
2023/08/23 10:20:26;;;;;;;7.03;5.07;;;24.10;78.30;;;;;;5115562;28;20024;-77
2023/08/23 10:22:58;;;;;;;8.40;4.60;;;24.20;77.60;;;;;;5115518;28;20039;-77
2023/08/23 10:25:24;;;;;;;6.72;4.30;;;24.30;77.80;;;;;;5099296;28;20099;-77
2023/08/23 10:27:53;;;;;;;7.30;4.45;;;24.40;77.90;;;;;;5084194;28;20116;-78
2023/08/23 10:30:26;;;;;;;8.68;5.50;;;24.60;77.40;;;;;;5119041;28;20054;-77
2023/08/23 10:32:53;;;;;;;10.02;5.55;;;24.60;75.50;;;;;;5119350;28;20024;-77
2023/08/23 10:35:31;;;;;;;10.23;5.38;;;24.50;76.60;;;;;;5118991;28;20058;-78
2023/08/23 10:37:57;;;;;;;9.65;4.55;;;24.50;76.40;;;;;;5119069;28;20024;-78
2023/08/23 10:40:27;;;;;;;10.38;5.05;;;24.50;75.80;;;;;;5102227;28;20027;-78
2023/08/23 10:42:52;;;;;;;8.80;5.10;;;24.70;75.60;;;;;;5137069;28;20138;-78
2023/08/23 10:45:18;;;;;;;8.57;4.65;;;24.70;75.20;;;;;;5102126;28;20035;-77
2023/08/23 10:47:48;;;;;;;7.00;4.13;;;24.70;73.70;;;;;;5101981;28;20035;-78
2023/08/23 10:50:15;;;;;;;7.45;3.80;;;24.80;72.70;;;;;;5102428;28;20097;-78
2023/08/23 10:52:41;;;;;;;4.88;3.20;;;24.90;73.00;;;;;;5136881;28;20072;-79
2023/08/23 10:55:07;;;;;;;9.45;4.45;;;25.00;72.90;;;;;;5101925;28;20023;-79
2023/08/23 10:57:32;;;;;;;7.88;4.20;;;25.10;72.60;;;;;;5118686;28;20020;-78
2023/08/23 10:59:58;;;;;;;9.65;5.00;;;25.20;72.70;;;;;;5085228;28;20028;-78
2023/08/23 11:02:24;;;;;;;7.03;4.70;;;25.30;72.30;;;;;;5101765;28;20024;-78
2023/08/23 11:04:49;;;;;;;7.03;3.72;;;25.20;72.10;;;;;;5101655;28;20019;-78
2023/08/23 11:07:15;;;;;;;6.43;3.97;;;25.10;70.40;;;;;;5101613;28;20051;-78
2023/08/23 11:09:41;;;;;;;8.73;4.60;;;25.20;72.20;;;;;;5101513;28;20059;-78
2023/08/23 11:12:08;;;;;;;6.53;3.28;;;25.40;72.00;;;;;;5101584;28;20038;-78
2023/08/23 11:14:33;;;;;;;6.80;3.90;;;25.50;68.80;;;;;;5136372;28;20087;-78
2023/08/23 11:16:59;;;;;;;8.70;4.72;;;25.40;68.00;;;;;;5101488;28;20050;-78
2023/08/23 11:19:25;;;;;;;8.90;4.47;;;25.50;69.10;;;;;;5118210;28;20030;-78
2023/08/23 11:21:51;;;;;;;6.65;4.60;;;25.60;70.20;;;;;;5118357;28;20467;-78
2023/08/23 11:24:17;;;;;;;8.77;4.72;;;25.60;70.40;;;;;;5084534;28;20031;-78
2023/08/23 11:26:43;;;;;;;6.53;4.00;;;25.60;70.60;;;;;;5118134;28;20024;-78
2023/08/23 11:29:08;;;;;;;6.38;3.50;;;25.50;69.90;;;;;;5101311;28;20077;-78
2023/08/23 11:31:35;;;;;;;6.28;3.55;;;25.40;68.40;;;;;;5118071;28;20036;-78
2023/08/23 11:34:08;;;;;;;6.13;3.17;;;25.50;69.30;;;;;;5117999;28;20047;-78
2023/08/23 11:36:36;;;;;;;5.68;3.70;;;25.60;68.30;;;;;;5135903;28;20050;-78
2023/08/23 11:39:04;;;;;;;5.65;3.08;;;25.60;68.40;;;;;;5136021;28;20045;-79
2023/08/23 11:41:32;;;;;;;6.05;3.30;;;25.60;69.80;;;;;;5101178;28;20016;-78
2023/08/23 11:44:05;;;;;;;5.63;3.08;;;25.50;68.20;;;;;;5084564;28;20088;-78
2023/08/23 11:46:34;;;;;;;7.45;3.00;;;25.50;67.40;;;;;;5117778;28;20030;-78
2023/08/23 11:49:03;;;;;;;7.28;3.15;;;25.60;67.80;;;;;;5117729;28;20019;-78
2023/08/23 11:51:50;;;;;;;7.20;2.55;;;25.60;68.50;;;;;;5117588;28;20024;-78
2023/08/23 11:54:17;;;;;;;4.22;2.15;;;25.70;67.20;;;;;;5100683;28;20420;-78
2023/08/23 11:56:44;;;;;;;6.20;2.35;;;25.70;67.90;;;;;;5117563;28;20031;-78
2023/08/23 11:59:11;;;;;;;3.97;2.13;;;25.80;66.00;;;;;;5117579;28;20023;-78
2023/08/23 12:01:42;;;;;;;3.55;1.95;;;25.70;66.30;;;;;;5135584;28;20061;-78
2023/08/23 12:04:11;;;;;;;5.30;2.50;;;25.80;64.80;;;;;;5135458;28;20015;-78
2023/08/23 12:06:37;;;;;;;2.92;1.75;;;25.80;65.00;;;;;;5100946;28;20045;-78
2023/08/23 12:09:03;;;;;;;6.90;2.25;;;25.80;67.80;;;;;;5100618;28;20031;-78
2023/08/23 12:11:32;;;;;;;5.97;2.20;;;25.90;67.50;;;;;;5083893;28;20031;-78
2023/08/23 12:14:03;;;;;;;4.38;1.92;;;25.90;65.80;;;;;;5117227;28;20023;-77
2023/08/23 12:16:28;;;;;;;2.35;1.90;;;26.00;66.80;;;;;;5100742;28;20024;-75
2023/08/23 12:18:54;;;;;;;5.75;1.80;;;26.20;65.80;;;;;;5100088;28;20087;-76
2023/08/23 12:21:20;;;;;;;3.53;1.80;;;26.30;61.60;;;;;;5100185;28;20024;-76
2023/08/23 12:23:45;;;;;;;3.85;1.88;;;26.20;62.40;;;;;;5117220;28;20101;-76
2023/08/23 12:26:11;;;;;;;3.05;1.80;;;26.10;63.00;;;;;;5100099;28;20100;-75
2023/08/23 12:28:37;;;;;;;3.13;2.00;;;26.10;61.00;;;;;;5116645;28;20031;-75
2023/08/23 12:31:03;;;;;;;3.30;1.80;;;26.10;61.80;;;;;;5099588;28;20024;-75
2023/08/23 12:33:29;;;;;;;5.90;2.38;;;26.10;63.40;;;;;;5099862;28;20047;-76
2023/08/23 12:35:54;;;;;;;4.97;2.45;;;26.20;63.00;;;;;;5116806;28;20039;-76
2023/08/23 12:38:20;;;;;;;4.05;2.00;;;26.30;62.80;;;;;;5083049;28;20023;-76
2023/08/23 12:40:46;;;;;;;2.35;1.70;;;26.50;63.70;;;;;;5099805;28;20035;-76
2023/08/23 12:43:12;;;;;;;2.92;1.55;;;26.70;64.20;;;;;;5134694;28;20024;-77
2023/08/23 12:45:38;;;;;;;3.25;1.90;;;26.80;62.00;;;;;;5116700;28;20056;-76
2023/08/23 12:48:04;;;;;;;3.47;1.73;;;26.80;63.30;;;;;;5099671;28;20039;-77
2023/08/23 12:50:29;;;;;;;3.80;2.00;;;26.80;60.70;;;;;;5116565;28;20083;-77
2023/08/23 12:52:55;;;;;;;2.70;1.80;;;26.80;61.20;;;;;;5099535;28;20126;-76